Weather History for Windom, MN

Change the Weather History Date:

Friday, April 12, 2013

  Actual Average Record
Temperature  
Mean Temperature 28 °F -  
Max Temperature 33 °F 54 °F 81 °F (1968)
Min Temperature 23 °F 33 °F 15 °F (1950)
Degree Days  
Heating Degree Days 37    
Moisture  
Dew Point 26 °F    
Average Humidity 91    
Maximum Humidity 100    
Minimum Humidity 75    
Precipitation  
Precipitation 0.00 in - - ()
Sea Level Pressure  
Sea Level Pressure 29.77 in    
Wind  
Wind Speed 14 mph (NW)    
Max Wind Speed 22 mph    
Max Gust Speed 26 mph    
Visibility 8 miles    
Events Snow    
Averages and records for this station are not official NWS values.
T = Trace of Precipitation, MM = Missing Value Source: NWS Daily Summary

Daily Weather History Graph

Daily Weather History Graph

Search for Another Location

Airport:

Trip Planner

Search our weather history database for the weather conditions in past years. The results will help you decide how hot, cold, wet, or windy it might be!

Date:

Astronomy

Apr. 12, 2013 Rise Set
Actual Time 6:41 AM CDT 8:01 PM CDT
Civil Twilight 6:12 AM CDT 8:30 PM CDT
Nautical Twilight 5:36 AM CDT 9:06 PM CDT
Astronomical Twilight 4:58 AM CDT 9:45 PM CDT
Moon 7:48 AM CDT (4/12) 10:37 PM CDT (4/12)
Length of Visible Light 14h 18m
Length of Day
13h 19m
Waxing Crescent, 5% of the Moon is Illuminated
Apr 12
Waxing Crescent
Apr 18
First Quarter
Apr 25
Full
May 2
Last Quarter
May 9
New

Hourly Weather History & Observations

Time (CDT) Temp. Windchill Dew Point Humidity Pressure Visibility Wind Dir Wind Speed Gust Speed Precip Events Conditions
12:13 AM 30.2 °F 19.8 °F 30.2 °F 100% 29.66 in 5.0 mi NNE 13.8 mph 19.6 mph N/A Snow Light Snow
12:32 AM 30.2 °F 19.3 °F 30.2 °F 100% 29.66 in 4.0 mi North 15.0 mph - N/A Snow Light Snow
12:52 AM 30.2 °F 20.2 °F 30.2 °F 100% 29.67 in 2.0 mi North 12.7 mph - N/A Snow Light Snow
1:13 AM 30.2 °F 19.8 °F 30.2 °F 100% 29.67 in 3.0 mi North 13.8 mph - N/A Snow Light Snow
1:32 AM 30.2 °F 20.2 °F 28.4 °F 93% 29.67 in 2.5 mi North 12.7 mph - N/A Snow Light Snow
1:52 AM 30.2 °F 20.2 °F 28.4 °F 93% 29.68 in 2.5 mi North 12.7 mph - N/A Snow Light Snow
2:13 AM 30.2 °F 20.2 °F 28.4 °F 93% 29.68 in 3.0 mi North 12.7 mph - N/A Snow Light Snow
2:32 AM 28.4 °F 17.0 °F 28.4 °F 100% 29.67 in 4.0 mi North 15.0 mph - N/A Snow Light Snow
2:52 AM 28.4 °F 17.0 °F 28.4 °F 100% 29.67 in 3.0 mi North 15.0 mph - N/A Snow Light Snow
3:13 AM 28.4 °F 18.5 °F 28.4 °F 100% 29.67 in 7.0 mi North 11.5 mph - N/A Snow Light Snow
3:32 AM 28.4 °F 17.5 °F 28.4 °F 100% 29.68 in 7.0 mi NNW 13.8 mph - N/A Snow Light Snow
3:52 AM 28.4 °F 18.5 °F 26.6 °F 93% 29.68 in 7.0 mi NNW 11.5 mph - N/A Snow Light Snow
4:13 AM 28.4 °F 17.0 °F 26.6 °F 93% 29.68 in 7.0 mi NNW 15.0 mph - N/A Snow Light Snow
4:32 AM 28.4 °F 17.5 °F 26.6 °F 93% 29.68 in 7.0 mi NNW 13.8 mph - N/A Snow Light Snow
4:52 AM 28.4 °F 17.0 °F 26.6 °F 93% 29.69 in 5.0 mi NW 15.0 mph - N/A Snow Light Snow
5:13 AM 28.4 °F 16.2 °F 26.6 °F 93% 29.68 in 4.0 mi North 17.3 mph - N/A Snow Light Snow
5:32 AM 26.6 °F 14.3 °F 26.6 °F 100% 29.69 in 4.0 mi NNW 16.1 mph - N/A   Overcast
5:52 AM 26.6 °F 15.2 °F 26.6 °F 100% 29.69 in 7.0 mi NW 13.8 mph - N/A Snow Light Snow
6:13 AM 26.6 °F 14.7 °F 26.6 °F 100% 29.69 in 4.0 mi NNW 15.0 mph - N/A Snow Light Snow
6:32 AM 26.6 °F 15.2 °F 26.6 °F 100% 29.69 in 7.0 mi NNW 13.8 mph - N/A Snow Light Snow
6:52 AM 26.6 °F 14.7 °F 26.6 °F 100% 29.70 in 10.0 mi NW 15.0 mph - N/A Snow Light Snow
7:13 AM 26.6 °F 14.7 °F 26.6 °F 100% 29.71 in 10.0 mi NW 15.0 mph - N/A   Overcast
7:32 AM 26.6 °F 14.7 °F 26.6 °F 100% 29.71 in 7.0 mi NW 15.0 mph - N/A Snow Light Snow
7:52 AM 26.6 °F 14.7 °F 26.6 °F 100% 29.72 in 4.0 mi NW 15.0 mph - N/A Snow Light Snow
8:13 AM 26.6 °F 14.3 °F 26.6 °F 100% 29.72 in 10.0 mi NW 16.1 mph - N/A   Overcast
8:32 AM 28.4 °F 17.0 °F 26.6 °F 93% 29.72 in 10.0 mi NW 15.0 mph - N/A   Overcast
8:52 AM 28.4 °F 17.0 °F 26.6 °F 93% 29.72 in 10.0 mi NW 15.0 mph 19.6 mph N/A   Overcast
9:12 AM 28.4 °F 18.0 °F 26.6 °F 93% 29.72 in 10.0 mi NW 12.7 mph - N/A   Overcast
9:32 AM 28.4 °F 16.6 °F 26.6 °F 93% 29.73 in 10.0 mi NW 16.1 mph - N/A   Overcast
9:53 AM 28.4 °F 17.0 °F 26.6 °F 93% 29.74 in 10.0 mi NW 15.0 mph - N/A   Overcast
10:12 AM 28.4 °F 17.0 °F 26.6 °F 93% 29.74 in 10.0 mi NW 15.0 mph - N/A   Overcast
10:32 AM 28.4 °F 15.8 °F 26.6 °F 93% 29.75 in 10.0 mi NW 18.4 mph 21.9 mph N/A   Overcast
10:53 AM 28.4 °F 16.6 °F 26.6 °F 93% 29.76 in 10.0 mi WNW 16.1 mph - N/A   Overcast
11:12 AM 28.4 °F 16.2 °F 26.6 °F 93% 29.77 in 10.0 mi WNW 17.3 mph 20.7 mph N/A   Overcast
11:32 AM 30.2 °F 18.1 °F 26.6 °F 86% 29.77 in 10.0 mi WNW 18.4 mph - N/A   Overcast
11:53 AM 30.2 °F 17.1 °F 26.6 °F 86% 29.77 in 10.0 mi WNW 21.9 mph 26.5 mph N/A   Overcast
12:12 PM 30.2 °F 18.9 °F 26.6 °F 86% 29.78 in 10.0 mi WNW 16.1 mph 24.2 mph N/A   Overcast
12:32 PM 30.2 °F 18.9 °F 26.6 °F 86% 29.77 in 10.0 mi WNW 16.1 mph 20.7 mph N/A   Overcast
12:53 PM 30.2 °F 19.3 °F 26.6 °F 86% 29.78 in 10.0 mi WNW 15.0 mph 23.0 mph N/A   Overcast
1:12 PM 30.2 °F 18.1 °F 26.6 °F 86% 29.77 in 10.0 mi WNW 18.4 mph 23.0 mph N/A   Overcast
1:32 PM 33.8 °F 23.5 °F 26.6 °F 75% 29.77 in 10.0 mi WNW 16.1 mph 19.6 mph N/A   Mostly Cloudy
1:53 PM 32.0 °F 21.2 °F 26.6 °F 80% 29.78 in 10.0 mi WNW 16.1 mph - N/A   Overcast
2:12 PM 32.0 °F 20.8 °F 26.6 °F 80% 29.79 in 10.0 mi WNW 17.3 mph 21.9 mph N/A   Overcast
2:32 PM 32.0 °F 21.2 °F 26.6 °F 80% 29.79 in 10.0 mi WNW 16.1 mph 20.7 mph N/A   Overcast
2:53 PM 32.0 °F 21.2 °F 26.6 °F 80% 29.80 in 10.0 mi WNW 16.1 mph 25.3 mph N/A   Overcast
3:12 PM 32.0 °F 20.5 °F 26.6 °F 80% 29.80 in 10.0 mi WNW 18.4 mph 23.0 mph N/A   Overcast
3:32 PM 32.0 °F 19.8 °F 26.6 °F 80% 29.81 in 10.0 mi WNW 20.7 mph - N/A   Overcast
3:53 PM 32.0 °F 21.2 °F 26.6 °F 80% 29.80 in 10.0 mi WNW 16.1 mph - N/A   Overcast
4:12 PM 32.0 °F 21.2 °F 26.6 °F 80% 29.81 in 10.0 mi WNW 16.1 mph - N/A   Overcast
4:32 PM 32.0 °F 21.6 °F 26.6 °F 80% 29.81 in 10.0 mi WNW 15.0 mph 20.7 mph N/A   Overcast
4:53 PM 30.2 °F 19.3 °F 26.6 °F 86% 29.82 in 10.0 mi WNW 15.0 mph 19.6 mph N/A   Overcast
5:12 PM 30.2 °F 19.3 °F 26.6 °F 86% 29.83 in 10.0 mi WNW 15.0 mph - N/A   Overcast
5:32 PM 30.2 °F 19.3 °F 26.6 °F 86% 29.84 in 10.0 mi WNW 15.0 mph 20.7 mph N/A   Overcast
5:53 PM 30.2 °F 19.3 °F 26.6 °F 86% 29.84 in 10.0 mi WNW 15.0 mph - N/A   Overcast
6:12 PM 30.2 °F 19.8 °F 26.6 °F 86% 29.85 in 10.0 mi WNW 13.8 mph - N/A   Overcast
6:32 PM 30.2 °F 20.2 °F 26.6 °F 86% 29.85 in 10.0 mi WNW 12.7 mph - N/A   Overcast
6:53 PM 30.2 °F 19.8 °F 26.6 °F 86% 29.85 in 10.0 mi WNW 13.8 mph - N/A   Overcast
7:12 PM 30.2 °F 19.3 °F 26.6 °F 86% 29.85 in 10.0 mi WNW 15.0 mph 19.6 mph N/A   Overcast
7:32 PM 30.2 °F 20.2 °F 26.6 °F 86% 29.85 in 10.0 mi WNW 12.7 mph - N/A Snow Light Snow
7:53 PM 28.4 °F 18.0 °F 26.6 °F 93% 29.85 in 10.0 mi WNW 12.7 mph - N/A Snow Light Snow
8:12 PM 28.4 °F 19.1 °F 24.8 °F 86% 29.86 in 10.0 mi WNW 10.4 mph - N/A Snow Light Snow
8:32 PM 26.6 °F 15.7 °F 24.8 °F 93% 29.86 in 10.0 mi WNW 12.7 mph - N/A Snow Light Snow
8:53 PM 26.6 °F 16.8 °F 24.8 °F 93% 29.86 in 10.0 mi WNW 10.4 mph - N/A Snow Light Snow
9:12 PM 24.8 °F 14.6 °F 21.2 °F 86% 29.87 in 10.0 mi West 10.4 mph - N/A   Clear
9:32 PM 24.8 °F 14.6 °F 21.2 °F 86% 29.87 in 10.0 mi West 10.4 mph - N/A   Scattered Clouds
9:53 PM 23.0 °F 13.1 °F 21.2 °F 93% 29.87 in 10.0 mi West 9.2 mph - N/A   Mostly Cloudy
10:12 PM 23.0 °F 13.1 °F 21.2 °F 93% 29.88 in 10.0 mi West 9.2 mph - N/A   Scattered Clouds
10:32 PM 23.0 °F 12.4 °F 21.2 °F 93% 29.88 in 10.0 mi West 10.4 mph - N/A   Scattered Clouds
10:53 PM 26.6 °F 16.2 °F 24.8 °F 93% 29.88 in 10.0 mi West 11.5 mph - N/A   Mostly Cloudy
11:12 PM 26.6 °F 16.2 °F 24.8 °F 93% 29.88 in 10.0 mi West 11.5 mph - N/A   Overcast
11:32 PM 26.6 °F 16.2 °F 24.8 °F 93% 29.88 in 10.0 mi West 11.5 mph - N/A   Overcast
11:53 PM 26.6 °F 16.2 °F 23.0 °F 86% 29.88 in 10.0 mi West 11.5 mph - N/A   Mostly Cloudy